Terminal Aerodrome Forecast
Issued by NWS

Home | Current Version | Previous Version | Text Only | Print | Product List | Glossary On
Versions: 1 2 3 4 5 6 7 8 9 10 11 12 13 14 15 16 17 18 19 20 21 22 23 24 25 26 27 28 29 30 31 32 33 34 35 36 37 38 39 40
000
FTUS45 KBYZ 180107 AAA
TAFLVM
TAF AMD
KLVM 180107Z 1801/1824 24025G40KT 6SM BLSN OVC050
     FM180400 22042G62KT P6SM BKN120=

USA.gov is the U.S. government's official web portal to all federal, state and local government web resources and services.